»·PEaware :: WAT390 KBOI-KSMF

WAT390 :: KBOI-KSMF

FLIGHT INFORMATION

Flight Status: Arrived
Operator:
Walker Air Transport
More flights by this operator :: More flights under this callsign
Pilot: Ewen S. (18928)
Aircraft: BOEING 737-300
(B733)
More flights by this aircraft type
Origin: KBOI Boise Air Terminal/Gowen
United States
Destination: KSMF Sacramento Intl
United States
More flights between these airports :: More routes between these airports
Route: BOI3 BOI HYVAL REO ANAHO SLMMR4
File this flight plan on PilotEdge
Remarks:
Altitude:
(Current/Filed)
36,000ft
Speed:
(Current/Filed)
440kts
Departed: 10-Nov-20 12:27 PM
Arrived: 10-Nov-20 01:41 PM
Distance/Time
Traveled:
380nm/1:14
Distance/Time
To Go:
Arrived

Flight Plot

Page will automatically refresh every two minutes.

Flight plan parsing failed; only flown route is shown


Map Options




Map Legend


Flown Route
Filed Route
Departure Airport
Arrival Airport
Navaid (VOR, NDB)
Fix

Horizontal Profiles

Position Reports

Time Latitude Longitude Heading Altitude Ground
Speed
10-Nov-20 11:37 43.567988 -116.220286 237 2850ft 0kts
10-Nov-20 11:38 43.567988 -116.220286 237 2850ft 0kts
10-Nov-20 11:39 43.567988 -116.220286 237 2850ft 0kts
10-Nov-20 11:40 43.567988 -116.220286 237 2850ft 0kts
10-Nov-20 11:41 43.567988 -116.220286 237 2850ft 0kts
10-Nov-20 11:42 43.567988 -116.220286 237 2850ft 0kts
10-Nov-20 11:43 43.567988 -116.220286 237 2850ft 0kts
10-Nov-20 11:44 43.567988 -116.220286 237 2850ft 0kts
10-Nov-20 11:45 43.567988 -116.220286 237 2850ft 0kts
10-Nov-20 11:46 43.567988 -116.220286 237 2850ft 0kts
10-Nov-20 11:47 43.567988 -116.220286 237 2850ft 0kts
10-Nov-20 11:48 43.567988 -116.220286 237 2850ft 0kts
10-Nov-20 11:49 43.567988 -116.220286 237 2850ft 0kts
10-Nov-20 11:50 43.567988 -116.220286 237 2850ft 0kts
10-Nov-20 11:51 43.567988 -116.220286 237 2850ft 0kts
10-Nov-20 11:52 43.567988 -116.220286 237 2850ft 0kts
10-Nov-20 11:53 43.567988 -116.220286 237 2850ft 0kts
10-Nov-20 11:54 43.567988 -116.220286 237 2850ft 0kts
10-Nov-20 11:55 43.567988 -116.220286 237 2850ft 0kts
10-Nov-20 11:56 43.567988 -116.220286 237 2850ft 0kts
10-Nov-20 11:57 43.567988 -116.220286 237 2850ft 0kts
10-Nov-20 11:58 43.567988 -116.220286 237 2850ft 0kts
10-Nov-20 11:59 43.567988 -116.220286 237 2850ft 0kts
10-Nov-20 12:00 43.567988 -116.220286 237 2850ft 0kts
10-Nov-20 12:01 43.567988 -116.220286 237 2850ft 0kts
10-Nov-20 12:02 43.567988 -116.220286 237 2850ft 0kts
10-Nov-20 12:03 43.568013 -116.220232 237 2850ft 2kts
10-Nov-20 12:04 43.568054 -116.219467 312 2850ft 2kts
10-Nov-20 12:05 43.567946 -116.219347 326 2850ft 0kts
10-Nov-20 12:06 43.567946 -116.219347 326 2850ft 0kts
10-Nov-20 12:07 43.567946 -116.219347 326 2850ft 0kts
10-Nov-20 12:08 43.567946 -116.219347 326 2850ft 0kts
10-Nov-20 12:09 43.567946 -116.219347 325 2850ft 0kts
10-Nov-20 12:10 43.567946 -116.219347 326 2850ft 0kts
10-Nov-20 12:11 43.567946 -116.219347 326 2850ft 0kts
10-Nov-20 12:12 43.567993 -116.219379 347 2850ft 0kts
10-Nov-20 12:13 43.567935 -116.217801 130 2850ft 7kts
10-Nov-20 12:14 43.566568 -116.217491 176 2850ft 0kts
10-Nov-20 12:15 43.565694 -116.217356 173 2850ft 6kts
10-Nov-20 12:16 43.565893 -116.220676 295 2850ft 16kts
10-Nov-20 12:17 43.567994 -116.226905 295 2850ft 19kts
10-Nov-20 12:18 43.570438 -116.234094 296 2850ft 21kts
10-Nov-20 12:19 43.570965 -116.236025 253 2850ft 0kts
10-Nov-20 12:20 43.570965 -116.236025 253 2850ft 0kts
10-Nov-20 12:21 43.570965 -116.236025 253 2850ft 0kts
10-Nov-20 12:22 43.570965 -116.236025 253 2850ft 0kts
10-Nov-20 12:23 43.570965 -116.236025 253 2850ft 0kts
10-Nov-20 12:24 43.570965 -116.236025 253 2850ft 0kts
10-Nov-20 12:25 43.570095 -116.236594 130 2850ft 8kts
10-Nov-20 12:26 43.557918 -116.199567 110 4155ft 144kts
10-Nov-20 12:27 43.543129 -116.142636 111 6364ft 166kts
10-Nov-20 12:28 43.527187 -116.078586 114 8278ft 198kts
10-Nov-20 12:29 43.498049 -116.002487 120 9831ft 242kts
10-Nov-20 12:30 43.458844 -115.924629 162 11829ft 252kts
10-Nov-20 12:31 43.420153 -115.975571 280 13023ft 265kts
10-Nov-20 12:32 43.406204 -116.088006 249 14836ft 325kts
10-Nov-20 12:33 43.369309 -116.201962 251 17838ft 328kts
10-Nov-20 12:34 43.332346 -116.318893 252 20261ft 339kts
10-Nov-20 12:35 43.293999 -116.439763 252 22081ft 350kts
10-Nov-20 12:36 43.254355 -116.564089 252 24173ft 360kts
10-Nov-20 12:37 43.213265 -116.692502 251 26027ft 371kts
10-Nov-20 12:38 43.170847 -116.824352 251 27810ft 381kts
10-Nov-20 12:39 43.122816 -116.954755 237 29870ft 387kts
10-Nov-20 12:40 43.056176 -117.069225 237 31564ft 378kts
10-Nov-20 12:41 42.990613 -117.183216 237 32890ft 382kts
10-Nov-20 12:42 42.924385 -117.297937 237 34465ft 377kts
10-Nov-20 12:44 42.858592 -117.411089 237 35566ft 379kts
10-Nov-20 12:45 42.791753 -117.525935 237 36126ft 387kts
10-Nov-20 12:46 42.723805 -117.642227 238 36116ft 383kts
10-Nov-20 12:47 42.657100 -117.756305 237 36123ft 384kts
10-Nov-20 12:48 42.588108 -117.868813 223 36103ft 393kts
10-Nov-20 12:49 42.484216 -117.933682 212 36127ft 408kts
10-Nov-20 12:50 42.380837 -117.996769 212 36126ft 406kts
10-Nov-20 12:51 42.276444 -118.060507 212 36130ft 407kts
10-Nov-20 12:52 42.172592 -118.123651 212 36129ft 407kts
10-Nov-20 12:53 42.068042 -118.186995 212 36130ft 407kts
10-Nov-20 12:54 41.963673 -118.249991 212 36153ft 407kts
10-Nov-20 12:55 41.859548 -118.312509 213 36152ft 408kts
10-Nov-20 12:56 41.754649 -118.375264 213 36167ft 408kts
10-Nov-20 12:57 41.650707 -118.437337 213 36165ft 408kts
10-Nov-20 12:58 41.546322 -118.499443 213 36166ft 408kts
10-Nov-20 12:59 41.442054 -118.561276 213 36165ft 407kts
10-Nov-20 12:59 41.355497 -118.612448 213 36178ft 408kts
10-Nov-20 13:01 41.233637 -118.684419 212 36197ft 409kts
10-Nov-20 13:02 41.128046 -118.746429 212 36193ft 409kts
10-Nov-20 13:03 41.023930 -118.807298 212 36195ft 410kts
10-Nov-20 13:03 40.936173 -118.858442 212 36191ft 410kts
10-Nov-20 13:04 40.832754 -118.918228 213 36141ft 390kts
10-Nov-20 13:06 40.712237 -118.988084 212 36206ft 410kts
10-Nov-20 13:06 40.624028 -119.038915 213 36201ft 407kts
10-Nov-20 13:08 40.502757 -119.108642 213 36202ft 408kts
10-Nov-20 13:08 40.416305 -119.158180 213 36204ft 409kts
10-Nov-20 13:09 40.311887 -119.217807 213 36202ft 409kts
10-Nov-20 13:10 40.207000 -119.277503 212 36211ft 408kts
10-Nov-20 13:11 40.102727 -119.336652 213 36210ft 407kts
10-Nov-20 13:12 39.998353 -119.395661 213 36212ft 408kts
10-Nov-20 13:13 39.921750 -119.489631 244 36214ft 377kts
10-Nov-20 13:14 39.862772 -119.603507 243 36211ft 376kts
10-Nov-20 13:15 39.802918 -119.717785 243 34008ft 390kts
10-Nov-20 13:16 39.741683 -119.834087 243 31178ft 389kts
10-Nov-20 13:17 39.678781 -119.953150 243 27537ft 403kts
10-Nov-20 13:18 39.616557 -120.070215 244 25595ft 371kts
10-Nov-20 13:19 39.558265 -120.179793 243 23184ft 361kts
10-Nov-20 13:20 39.501246 -120.286525 242 20808ft 354kts
10-Nov-20 13:21 39.433624 -120.379570 220 19449ft 374kts
10-Nov-20 13:22 39.348612 -120.452722 221 17443ft 358kts
10-Nov-20 13:23 39.265864 -120.524534 220 15286ft 351kts
10-Nov-20 13:24 39.184847 -120.594673 219 13219ft 345kts
10-Nov-20 13:25 39.104742 -120.663897 218 12942ft 345kts
10-Nov-20 13:26 39.055615 -120.761787 256 12675ft 314kts
10-Nov-20 13:27 39.029382 -120.863437 255 11277ft 299kts
10-Nov-20 13:28 39.004261 -120.959849 255 10567ft 262kts
10-Nov-20 13:29 38.980950 -121.049134 253 9197ft 259kts
10-Nov-20 13:30 38.957930 -121.136216 252 8205ft 238kts
10-Nov-20 13:31 38.937314 -121.216250 253 7148ft 230kts
10-Nov-20 13:32 38.917619 -121.294557 253 5959ft 226kts
10-Nov-20 13:33 38.898785 -121.371359 253 4774ft 222kts
10-Nov-20 13:34 38.880969 -121.444429 253 3834ft 204kts
10-Nov-20 13:35 38.864080 -121.514525 244 2965ft 192kts
10-Nov-20 13:36 38.835851 -121.570859 222 2441ft 181kts
10-Nov-20 13:37 38.787633 -121.579634 177 1637ft 167kts
10-Nov-20 13:38 38.746704 -121.579585 183 763ft 135kts
10-Nov-20 13:39 38.709273 -121.580032 180 124ft 127kts
10-Nov-20 13:40 38.690691 -121.581869 210 27ft 10kts
10-Nov-20 13:41 38.691100 -121.582948 359 28ft 10kts
10-Nov-20 13:42 38.695138 -121.582892 1 29ft 13kts
10-Nov-20 13:43 38.696154 -121.586905 271 30ft 15kts
10-Nov-20 13:44 38.694724 -121.588956 180 32ft 13kts
10-Nov-20 13:45 38.693623 -121.588238 109 31ft 0kts

Navigation Log

Ident Type
Flight plan parsing failed, navigation log unavailable